| time (UTC) | temp C | wind direction | speed KPH | gust KPH | rain 1hr cm | rain 24hr cm | rain mn cm | humidity % | barometer mb |
| 20260903131903 | 23 | 197 | 4.8 | 9.7 | 0.00 | 0.00 | 0.00 | 45 | 1024.5 |
| 20260903130856 | 24 | 157 | 4.8 | 14.5 | 0.00 | 0.00 | 0.00 | 44 | 1024.4 |
| 20260903125848 | 24 | 329 | 4.8 | 11.3 | 0.00 | 0.00 | 0.00 | 44 | 1024.5 |
| 20260903124841 | 24 | 167 | 4.8 | 16.1 | 0.00 | 0.00 | 0.00 | 43 | 1024.3 |
| 20260903123833 | 24 | 3 | 4.8 | 12.9 | 0.00 | 0.00 | 0.00 | 45 | 1024.5 |
| 20260903122825 | 25 | 337 | 3.2 | 9.7 | 0.00 | 0.00 | 0.00 | 44 | 1024.6 |
| 20260903121817 | 25 | 354 | 3.2 | 11.3 | 0.00 | 0.00 | 0.00 | 44 | 1024.5 |
| 20260903120809 | 25 | 359 | 3.2 | 9.7 | 0.00 | 0.00 | 0.00 | 45 | 1024.5 |
| 20260903115802 | 23 | 230 | 4.8 | 9.7 | 0.00 | 0.00 | 0.00 | 46 | 1024.5 |
| 20260903114755 | 23 | 45 | 4.8 | 9.7 | 0.00 | 0.00 | 0.00 | 47 | 1024.8 |
| 20260903113748 | 23 | 234 | 4.8 | 11.3 | 0.00 | 0.00 | 0.00 | 45 | 1024.9 |
| 20260903112741 | 23 | 211 | 3.2 | 9.7 | 0.00 | 0.00 | 0.00 | 47 | 1024.8 |
| 20260903111733 | 23 | 259 | 4.8 | 11.3 | 0.00 | 0.00 | 0.00 | 47 | 1024.8 |
| 20260903110726 | 22 | 285 | 3.2 | 9.7 | 0.00 | 0.00 | 0.00 | 49 | 1025.0 |
| 20260903105719 | 23 | 315 | 3.2 | 4.8 | 0.00 | 0.00 | 0.00 | 47 | 1025.1 |
| 20260903104712 | 23 | 315 | 3.2 | 8.0 | 0.00 | 0.00 | 0.00 | 49 | 1025.4 |
| 20260903103705 | 23 | 315 | 3.2 | 6.4 | 0.00 | 0.00 | 0.00 | 51 | 1025.6 |
| 20260903102657 | 23 | 315 | 3.2 | 8.0 | 0.00 | 0.00 | 0.00 | 50 | 1025.8 |
| 20260903101650 | 23 | 315 | 3.2 | 8.0 | 0.00 | 0.00 | 0.00 | 50 | 1025.7 |
| 20260903100641 | 25 | 315 | 3.2 | 6.4 | 0.00 | 0.00 | 0.00 | 49 | 1025.7 |
| 20260903095633 | 26 | 315 | 3.2 | 6.4 | 0.00 | 0.00 | 0.00 | 47 | 1025.8 |
| 20260903094624 | 25 | 183 | 4.8 | 11.3 | 0.00 | 0.00 | 0.00 | 52 | 1025.9 |
| 20260903093615 | 26 | 225 | 3.2 | 8.0 | 0.00 | 0.00 | 0.00 | 54 | 1026.0 |
| 20260903092606 | 26 | 225 | 4.8 | 11.3 | 0.00 | 0.00 | 0.00 | 54 | 1026.1 |
| 20260903091557 | 25 | 225 | 4.8 | 9.7 | 0.00 | 0.00 | 0.00 | 56 | 1026.0 |
| 20260903090549 | 24 | 225 | 3.2 | 8.0 | 0.00 | 0.00 | 0.00 | 61 | 1026.0 |
| 20260903085541 | 23 | 225 | 3.2 | 11.3 | 0.00 | 0.00 | 0.00 | 61 | 1026.1 |
| 20260903084533 | 23 | 225 | 1.6 | 6.4 | 0.00 | 0.00 | 0.00 | 65 | 1026.1 |
| 20260903083526 | 22 | 225 | 3.2 | 8.0 | 0.00 | 0.00 | 0.00 | 67 | 1026.1 |
| 20260903082518 | 22 | 225 | 4.8 | 11.3 | 0.00 | 0.00 | 0.00 | 68 | 1026.1 |
| 20260903081510 | 23 | 212 | 4.8 | 9.7 | 0.00 | 0.00 | 0.00 | 65 | 1026.0 |
| 20260903080502 | 22 | 191 | 4.8 | 14.5 | 0.00 | 0.00 | 0.00 | 67 | 1026.0 |
| 20260903075454 | 23 | 225 | 3.2 | 9.7 | 0.00 | 0.00 | 0.00 | 62 | 1026.0 |
| 20260903074446 | 23 | 270 | 1.6 | 8.0 | 0.00 | 0.00 | 0.00 | 75 | 1026.1 |
| 20260903073438 | 23 | 315 | 1.6 | 6.4 | 0.00 | 0.00 | 0.00 | 75 | 1026.2 |
| 20260903072430 | 23 | 315 | 1.6 | 4.8 | 0.00 | 0.00 | 0.00 | 72 | 1026.2 |
| 20260903071422 | 22 | 315 | 1.6 | 3.2 | 0.00 | 0.00 | 0.00 | 80 | 1026.2 |
| 20260903070414 | 22 | 305 | 1.6 | 6.4 | 0.00 | 0.00 | 0.00 | 79 | 1026.2 |
| 20260903065406 | 22 | 180 | 1.6 | 6.4 | 0.00 | 0.00 | 0.00 | 77 | 1026.1 |
| 20260903064359 | 22 | 180 | 1.6 | 6.4 | 0.00 | 0.00 | 0.00 | 79 | 1026.1 |
| 20260903063352 | 21 | 180 | 1.6 | 4.8 | 0.00 | 0.00 | 0.00 | 82 | 1026.0 |
| 20260903062345 | 21 | 180 | 1.6 | 3.2 | 0.00 | 0.00 | 0.00 | 82 | 1026.0 |
| 20260903061339 | 20 | 180 | 3.2 | 4.8 | 0.00 | 0.00 | 0.00 | 80 | 1026.0 |
| 20260903060333 | 20 | 0 | 1.6 | 3.2 | 0.00 | 0.00 | 0.00 | 82 | 1025.9 |
| 20260903055327 | 19 | 0 | 0.0 | 3.2 | 0.00 | 0.00 | 0.00 | 81 | 1025.7 |
| 20260903054323 | 17 | 0 | 3.2 | 4.8 | 0.00 | 0.00 | 0.00 | 82 | 1025.7 |
| 20260903053318 | 15 | 0 | 4.8 | 6.4 | 0.00 | 0.00 | 0.00 | 86 | 1025.7 |
| 20260903052314 | 14 | 0 | 4.8 | 8.0 | 0.00 | 0.00 | 0.00 | 87 | 1025.8 |
| 20260903051310 | 14 | 357 | 6.4 | 8.0 | 0.00 | 0.00 | 0.00 | 89 | 1025.7 |
| 20260903050306 | 14 | 345 | 6.4 | 8.0 | 0.00 | 0.00 | 0.00 | 90 | 1025.6 |
| 20260903045306 | 12 | 319 | 6.4 | 8.0 | 0.00 | 0.00 | 0.00 | 92 | 1025.5 |
| 20260903044258 | 12 | 327 | 6.4 | 11.3 | 0.00 | 0.00 | 0.00 | 92 | 1025.5 |
| 20260903043254 | 12 | 319 | 6.4 | 9.7 | 0.00 | 0.00 | 0.00 | 92 | 1025.5 |
| 20260903042250 | 12 | 317 | 6.4 | 9.7 | 0.00 | 0.00 | 0.00 | 91 | 1025.6 |
| 20260903041246 | 13 | 319 | 6.4 | 11.3 | 0.00 | 0.00 | 0.00 | 90 | 1025.4 |
| 20260903040242 | 13 | 326 | 6.4 | 9.7 | 0.00 | 0.00 | 0.00 | 89 | 1025.4 |
| 20260903035238 | 13 | 326 | 6.4 | 9.7 | 0.00 | 0.00 | 0.00 | 89 | 1025.3 |
| 20260903034235 | 13 | 329 | 4.8 | 11.3 | 0.00 | 0.00 | 0.00 | 88 | 1025.3 |
| 20260903033231 | 13 | 318 | 4.8 | 6.4 | 0.00 | 0.00 | 0.00 | 89 | 1025.3 |
| 20260903032227 | 13 | 301 | 3.2 | 4.8 | 0.00 | 0.00 | 0.00 | 88 | 1025.3 |
| 20260903031222 | 13 | 307 | 3.2 | 4.8 | 0.00 | 0.00 | 0.00 | 88 | 1025.4 |
| 20260903030218 | 13 | 315 | 3.2 | 4.8 | 0.00 | 0.00 | 0.00 | 88 | 1025.4 |
| 20260903025214 | 14 | 326 | 4.8 | 9.7 | 0.00 | 0.00 | 0.00 | 87 | 1025.5 |
| 20260903024210 | 13 | 319 | 4.8 | 8.0 | 0.00 | 0.00 | 0.00 | 88 | 1025.4 |
| 20260903023206 | 13 | 317 | 4.8 | 8.0 | 0.00 | 0.00 | 0.00 | 88 | 1025.4 |
| 20260903022202 | 13 | 322 | 6.4 | 9.7 | 0.00 | 0.00 | 0.00 | 88 | 1025.3 |
| 20260903021158 | 13 | 321 | 6.4 | 11.3 | 0.00 | 0.00 | 0.00 | 88 | 1025.3 |
| 20260903020154 | 13 | 322 | 6.4 | 9.7 | 0.00 | 0.00 | 0.00 | 88 | 1025.3 |
| 20260903015150 | 14 | 316 | 6.4 | 8.0 | 0.00 | 0.00 | 0.00 | 88 | 1025.3 |
| 20260903014146 | 14 | 322 | 4.8 | 6.4 | 0.00 | 0.00 | 0.00 | 88 | 1025.3 |
| 20260903013142 | 14 | 315 | 4.8 | 6.4 | 0.00 | 0.00 | 0.00 | 89 | 1025.3 |
| 20260903012138 | 14 | 319 | 4.8 | 6.4 | 0.00 | 0.00 | 0.00 | 89 | 1025.3 |
| 20260903011134 | 14 | 321 | 6.4 | 8.0 | 0.00 | 0.00 | 0.00 | 90 | 1025.3 |
| 20260903010130 | 14 | 319 | 6.4 | 9.7 | 0.00 | 0.00 | 0.00 | 91 | 1025.4 |
| 20260903005126 | 13 | 324 | 4.8 | 6.4 | 0.00 | 0.00 | 0.00 | 92 | 1025.4 |
| 20260903004122 | 13 | 341 | 4.8 | 6.4 | 0.00 | 0.00 | 0.00 | 92 | 1025.4 |
| 20260903003118 | 13 | 0 | 4.8 | 6.4 | 0.00 | 0.00 | 0.00 | 93 | 1025.4 |
| 20260903002114 | 13 | 348 | 4.8 | 6.4 | 0.00 | 0.00 | 0.00 | 93 | 1025.3 |
| 20260903001110 | 13 | 333 | 4.8 | 6.4 | 0.00 | 0.00 | 0.00 | 93 | 1025.3 |
| 20260903000106 | 13 | 319 | 6.4 | 8.0 | 0.00 | 0.00 | 0.00 | 91 | 1025.3 |
| 20260902235102 | 13 | 325 | 6.4 | 9.7 | 0.00 | 0.00 | 0.00 | 90 | 1025.3 |
| 20260902234058 | 14 | 325 | 4.8 | 8.0 | 0.00 | 0.00 | 0.00 | 89 | 1025.4 |
| 20260902233054 | 13 | 321 | 3.2 | 6.4 | 0.00 | 0.00 | 0.00 | 89 | 1025.3 |
| 20260902232050 | 14 | 356 | 1.6 | 4.8 | 0.00 | 0.00 | 0.00 | 86 | 1025.3 |
| 20260902231045 | 15 | 0 | 1.6 | 3.2 | 0.00 | 0.00 | 0.00 | 87 | 1025.4 |
| 20260902230041 | 15 | 0 | 4.8 | 4.8 | 0.00 | 0.00 | 0.00 | 86 | 1025.4 |
| 20260902225037 | 15 | 344 | 3.2 | 4.8 | 0.00 | 0.00 | 0.00 | 86 | 1025.4 |
| 20260902224033 | 15 | 292 | 3.2 | 4.8 | 0.00 | 0.00 | 0.00 | 84 | 1025.5 |
| 20260902223029 | 16 | 225 | 3.2 | 4.8 | 0.00 | 0.00 | 0.00 | 83 | 1025.5 |
| 20260902222024 | 16 | 206 | 4.8 | 8.0 | 0.00 | 0.00 | 0.00 | 84 | 1025.4 |
| 20260902221020 | 16 | 223 | 8.0 | 11.3 | 0.00 | 0.00 | 0.00 | 85 | 1025.4 |
| 20260902220015 | 15 | 226 | 6.4 | 8.0 | 0.00 | 0.00 | 0.00 | 86 | 1025.5 |
| 20260902215011 | 15 | 225 | 6.4 | 9.7 | 0.00 | 0.00 | 0.00 | 87 | 1025.5 |
| 20260902214007 | 16 | 227 | 6.4 | 11.3 | 0.00 | 0.00 | 0.00 | 87 | 1025.5 |
| 20260902213003 | 15 | 227 | 6.4 | 9.7 | 0.00 | 0.00 | 0.00 | 87 | 1025.4 |
| 20260902211958 | 15 | 240 | 6.4 | 11.3 | 0.00 | 0.00 | 0.00 | 87 | 1025.4 |
| 20260902210954 | 15 | 251 | 6.4 | 9.7 | 0.00 | 0.00 | 0.00 | 86 | 1025.3 |
| 20260902205950 | 15 | 258 | 6.4 | 11.3 | 0.00 | 0.00 | 0.00 | 86 | 1025.3 |
| 20260902204945 | 15 | 270 | 6.4 | 11.3 | 0.00 | 0.00 | 0.00 | 85 | 1025.2 |
| 20260902203941 | 15 | 277 | 4.8 | 9.7 | 0.00 | 0.00 | 0.00 | 84 | 1025.1 |
| 20260902202937 | 16 | 311 | 4.8 | 6.4 | 0.00 | 0.00 | 0.00 | 82 | 1025.1 |
| 20260902201932 | 16 | 315 | 3.2 | 4.8 | 0.00 | 0.00 | 0.00 | 81 | 1025.1 |
| 20260902200928 | 16 | 315 | 3.2 | 6.4 | 0.00 | 0.00 | 0.00 | 80 | 1025.1 |
| 20260902195923 | 16 | 322 | 3.2 | 4.8 | 0.00 | 0.00 | 0.00 | 80 | 1025.0 |
| 20260902194919 | 16 | 321 | 3.2 | 4.8 | 0.00 | 0.00 | 0.00 | 80 | 1025.0 |
| 20260902193914 | 16 | 316 | 3.2 | 4.8 | 0.00 | 0.00 | 0.00 | 79 | 1025.1 |
| 20260902192910 | 16 | 0 | 4.8 | 4.8 | 0.00 | 0.00 | 0.00 | 80 | 1025.0 |
| 20260902191906 | 16 | 0 | 6.4 | 6.4 | 0.00 | 0.00 | 0.00 | 79 | 1025.0 |
| 20260902190901 | 16 | 0 | 4.8 | 6.4 | 0.00 | 0.00 | 0.00 | 79 | 1024.9 |
| 20260902185857 | 16 | 0 | 4.8 | 6.4 | 0.00 | 0.00 | 0.00 | 79 | 1024.7 |
| 20260902184853 | 16 | 0 | 6.4 | 8.0 | 0.00 | 0.00 | 0.00 | 79 | 1024.6 |
| 20260902183849 | 16 | 357 | 6.4 | 9.7 | 0.00 | 0.00 | 0.00 | 81 | 1024.7 |
| 20260902182845 | 16 | 323 | 4.8 | 9.7 | 0.00 | 0.00 | 0.00 | 80 | 1024.8 |
| 20260902181840 | 17 | 0 | 6.4 | 8.0 | 0.00 | 0.00 | 0.00 | 75 | 1024.8 |
| 20260902180836 | 16 | 0 | 6.4 | 9.7 | 0.00 | 0.00 | 0.00 | 76 | 1024.4 |
| 20260902175831 | 16 | 353 | 9.7 | 12.9 | 0.00 | 0.00 | 0.00 | 81 | 1024.3 |
| 20260902174826 | 16 | 354 | 9.7 | 12.9 | 0.00 | 0.00 | 0.00 | 83 | 1024.4 |
| 20260902173822 | 17 | 2 | 9.7 | 12.9 | 0.00 | 0.00 | 0.00 | 79 | 1024.4 |
| 20260902172817 | 17 | 359 | 6.4 | 11.3 | 0.00 | 0.00 | 0.00 | 74 | 1024.3 |
| 20260902171813 | 17 | 344 | 4.8 | 9.7 | 0.00 | 0.00 | 0.00 | 68 | 1024.6 |
| 20260902170808 | 17 | 343 | 6.4 | 12.9 | 0.00 | 0.00 | 0.00 | 67 | 1024.8 |
| 20260902165802 | 21 | 341 | 3.2 | 6.4 | 0.00 | 0.00 | 0.00 | 56 | 1024.3 |
| 20260902164757 | 22 | 0 | 0.0 | 0.0 | 0.00 | 0.00 | 0.00 | 61 | 1025.8 |